createdAt,value
2023-11-14T00:00:31.432Z,11.85
2023-11-14T00:01:31.399Z,11.85
2023-11-14T00:02:31.378Z,11.83
2023-11-14T00:03:31.510Z,11.83
2023-11-14T00:04:31.452Z,11.80
2023-11-14T00:05:31.422Z,11.80
2023-11-14T00:06:31.346Z,11.78
2023-11-14T00:07:31.331Z,11.75
2023-11-14T00:08:31.344Z,11.72
2023-11-14T00:09:31.293Z,11.75
2023-11-14T00:10:31.386Z,11.75
2023-11-14T00:11:31.252Z,11.76
2023-11-14T00:12:31.265Z,11.75
2023-11-14T00:13:31.277Z,11.72
2023-11-14T00:14:31.247Z,11.69
2023-11-14T00:15:31.304Z,11.65
2023-11-14T00:16:31.333Z,11.64
2023-11-14T00:17:31.384Z,11.64
2023-11-14T00:18:31.212Z,11.58
2023-11-14T00:19:31.232Z,11.57
2023-11-14T00:20:31.198Z,11.55
2023-11-14T00:21:31.127Z,11.55
2023-11-14T00:22:31.192Z,11.54
2023-11-14T00:23:31.163Z,11.52
2023-11-14T00:24:31.101Z,11.51
2023-11-14T00:25:31.216Z,11.51
2023-11-14T00:26:31.107Z,11.49
2023-11-14T00:27:31.077Z,11.47
2023-11-14T00:28:31.122Z,11.46
2023-11-14T00:29:31.082Z,11.47
2023-11-14T00:30:31.055Z,11.49
2023-11-14T00:31:31.204Z,11.49
2023-11-14T00:32:31.134Z,11.43
2023-11-14T00:33:31.083Z,11.43
2023-11-14T00:34:31.041Z,11.42
2023-11-14T00:35:31.006Z,11.42
2023-11-14T00:36:30.966Z,11.43
2023-11-14T00:37:30.977Z,11.43
2023-11-14T00:38:30.942Z,11.43
2023-11-14T00:39:30.974Z,11.42
2023-11-14T00:40:30.970Z,11.42
2023-11-14T00:41:30.914Z,11.42
2023-11-14T00:42:30.907Z,11.40
2023-11-14T00:43:30.907Z,11.39
2023-11-14T00:44:30.860Z,11.35
2023-11-14T00:45:30.928Z,11.33
2023-11-14T00:46:30.937Z,11.32
2023-11-14T00:47:30.968Z,11.35
2023-11-14T00:48:30.871Z,11.37
2023-11-14T00:49:31.483Z,11.39
2023-11-14T00:50:30.884Z,11.37
2023-11-14T00:51:30.791Z,11.37
2023-11-14T00:52:30.809Z,11.35
2023-11-14T00:53:30.816Z,11.36
2023-11-14T00:54:30.757Z,11.39
2023-11-14T00:55:30.762Z,11.39
2023-11-14T00:56:30.764Z,11.39
2023-11-14T00:57:30.739Z,11.40
2023-11-14T00:58:30.737Z,11.43
2023-11-14T00:59:30.723Z,11.43
2023-11-14T01:00:30.700Z,11.40
2023-11-14T01:01:30.753Z,11.40
2023-11-14T01:02:30.733Z,11.36
2023-11-14T01:03:30.744Z,11.37
2023-11-14T01:04:30.671Z,11.37
2023-11-14T01:05:30.685Z,11.36
2023-11-14T01:06:30.646Z,11.36
2023-11-14T01:07:30.622Z,11.35
2023-11-14T01:08:30.653Z,11.36
2023-11-14T01:09:30.587Z,11.36
2023-11-14T01:10:30.642Z,11.33
2023-11-14T01:11:30.605Z,11.33
2023-11-14T01:12:30.566Z,11.29
2023-11-14T01:13:30.554Z,11.33
2023-11-14T01:14:30.544Z,11.35
2023-11-14T01:15:30.514Z,11.33
2023-11-14T01:16:30.545Z,11.33
2023-11-14T01:17:30.570Z,11.39
2023-11-14T01:18:30.508Z,11.46
2023-11-14T01:19:30.503Z,11.51
2023-11-14T01:20:30.456Z,11.51
2023-11-14T01:21:30.515Z,11.47
2023-11-14T01:22:30.521Z,11.46
2023-11-14T01:23:30.522Z,11.47
2023-11-14T01:24:30.421Z,11.47
2023-11-14T01:25:30.429Z,11.46
2023-11-14T01:26:30.380Z,11.46
2023-11-14T01:27:30.416Z,11.44
2023-11-14T01:28:30.385Z,11.43
2023-11-14T01:29:30.396Z,11.42
2023-11-14T01:30:30.347Z,11.42
2023-11-14T01:31:30.457Z,11.39
2023-11-14T01:32:30.426Z,11.40
2023-11-14T01:33:30.366Z,11.40
2023-11-14T01:34:30.356Z,11.42
2023-11-14T01:35:30.294Z,11.39
2023-11-14T01:36:30.272Z,11.39
2023-11-14T01:37:30.302Z,11.37
2023-11-14T01:38:30.275Z,11.35
2023-11-14T01:39:30.284Z,11.32
2023-11-14T01:40:30.309Z,11.29
2023-11-14T01:41:30.231Z,11.29
2023-11-14T01:42:30.217Z,11.29
2023-11-14T01:43:30.227Z,11.32
2023-11-14T01:44:30.211Z,11.33
2023-11-14T01:45:30.247Z,11.35
2023-11-14T01:46:30.221Z,11.32
2023-11-14T01:47:30.309Z,11.29
2023-11-14T01:48:30.158Z,11.27
2023-11-14T01:49:30.143Z,11.25
2023-11-14T01:50:30.127Z,11.27
2023-11-14T01:51:30.156Z,11.28
2023-11-14T01:52:30.136Z,11.25
2023-11-14T01:53:30.096Z,11.28
2023-11-14T01:54:30.088Z,11.32
2023-11-14T01:55:30.110Z,11.32
2023-11-14T01:56:30.062Z,11.32
2023-11-14T01:57:30.160Z,11.28
2023-11-14T01:58:30.025Z,11.28
2023-11-14T01:59:30.054Z,11.25
2023-11-14T02:00:30.040Z,11.22
2023-11-14T02:01:30.140Z,11.22
2023-11-14T02:02:30.202Z,11.22
2023-11-14T02:03:30.107Z,11.18
2023-11-14T02:04:30.022Z,11.18
2023-11-14T02:05:29.966Z,11.14
2023-11-14T02:06:29.968Z,11.10
2023-11-14T02:07:29.972Z,11.10
2023-11-14T02:08:30.229Z,11.10
2023-11-14T02:09:29.933Z,11.14
2023-11-14T02:10:29.905Z,11.17
2023-11-14T02:11:29.881Z,11.17
2023-11-14T02:12:29.907Z,11.15
2023-11-14T02:13:29.886Z,11.10
2023-11-14T02:14:29.874Z,11.14
2023-11-14T02:15:29.860Z,11.14
2023-11-14T02:16:29.927Z,11.11
2023-11-14T02:17:29.955Z,11.14
2023-11-14T02:18:30.086Z,11.11
2023-11-14T02:19:29.855Z,11.14
2023-11-14T02:20:29.818Z,11.11
2023-11-14T02:21:29.790Z,11.11
2023-11-14T02:22:29.808Z,11.15
2023-11-14T02:23:29.760Z,11.17
2023-11-14T02:24:29.759Z,11.18
2023-11-14T02:25:29.783Z,11.18
2023-11-14T02:26:29.748Z,11.19
2023-11-14T02:27:29.710Z,11.19
2023-11-14T02:28:29.717Z,11.19
2023-11-14T02:29:29.688Z,11.22
2023-11-14T02:30:29.711Z,11.24
2023-11-14T02:31:29.678Z,11.21
2023-11-14T02:32:29.665Z,11.21
2023-11-14T02:33:29.645Z,11.22
2023-11-14T02:34:29.683Z,11.22
2023-11-14T02:35:29.644Z,11.29
2023-11-14T02:36:29.615Z,11.29
2023-11-14T02:37:29.633Z,11.35
2023-11-14T02:38:29.571Z,11.40
2023-11-14T02:39:29.566Z,11.42
2023-11-14T02:40:29.752Z,11.40
2023-11-14T02:41:29.559Z,11.40
2023-11-14T02:42:29.542Z,11.42
2023-11-14T02:43:29.558Z,11.42
2023-11-14T02:44:29.555Z,11.44
2023-11-14T02:45:29.497Z,11.51
2023-11-14T02:46:29.561Z,11.55
2023-11-14T02:47:29.647Z,11.58
2023-11-14T02:48:29.507Z,11.58
2023-11-14T02:49:29.490Z,11.55
2023-11-14T02:50:29.465Z,11.52
2023-11-14T02:51:29.436Z,11.52
2023-11-14T02:52:29.509Z,11.52
2023-11-14T02:53:29.433Z,11.49
2023-11-14T02:54:29.409Z,11.44
2023-11-14T02:55:29.396Z,11.47
2023-11-14T02:56:29.367Z,11.43
2023-11-14T02:57:29.388Z,11.46
2023-11-14T02:58:29.395Z,11.47
2023-11-14T02:59:29.336Z,11.51
2023-11-14T03:00:29.327Z,11.54
2023-11-14T03:01:29.348Z,11.54
2023-11-14T03:02:29.346Z,11.54
2023-11-14T03:03:29.307Z,11.55
2023-11-14T03:04:29.316Z,11.57
2023-11-14T03:05:29.254Z,11.55
2023-11-14T03:06:29.269Z,11.51
2023-11-14T03:07:29.233Z,11.49
2023-11-14T03:08:29.234Z,11.46
2023-11-14T03:09:29.251Z,11.43
2023-11-14T03:10:29.214Z,11.39
2023-11-14T03:11:29.199Z,11.36
2023-11-14T03:12:29.205Z,11.33
2023-11-14T03:13:29.165Z,11.29
2023-11-14T03:14:29.168Z,11.28
2023-11-14T03:15:29.161Z,11.29
2023-11-14T03:16:29.175Z,11.29
2023-11-14T03:17:29.161Z,11.28
2023-11-14T03:18:29.133Z,11.24
2023-11-14T03:19:29.110Z,11.22
2023-11-14T03:20:34.144Z,11.21
2023-11-14T03:21:30.076Z,11.21
2023-11-14T03:22:29.143Z,11.19
2023-11-14T03:23:29.062Z,11.21
2023-11-14T03:24:29.079Z,11.21
2023-11-14T03:25:29.130Z,11.19
2023-11-14T03:26:29.082Z,11.21
2023-11-14T03:27:29.020Z,11.19
2023-11-14T03:28:29.036Z,11.18
2023-11-14T03:29:29.047Z,11.18
2023-11-14T03:30:29.027Z,11.15
2023-11-14T03:31:29.002Z,11.14
2023-11-14T03:32:29.215Z,11.15
2023-11-14T03:33:29.057Z,11.15
2023-11-14T03:34:29.008Z,11.15
2023-11-14T03:35:29.090Z,11.18
2023-11-14T03:36:29.023Z,11.19
2023-11-14T03:37:28.884Z,11.18
2023-11-14T03:38:29.056Z,11.17
2023-11-14T03:39:28.996Z,11.18
2023-11-14T03:40:28.880Z,11.19
2023-11-14T03:41:28.846Z,11.21
2023-11-14T03:42:28.831Z,11.19
2023-11-14T03:43:28.821Z,11.22
2023-11-14T03:44:28.874Z,11.27
2023-11-14T03:45:28.818Z,11.25
2023-11-14T03:46:28.802Z,11.25
2023-11-14T03:47:28.809Z,11.24
2023-11-14T03:48:28.778Z,11.29
2023-11-14T03:49:28.820Z,11.32
2023-11-14T03:50:28.755Z,11.28
2023-11-14T03:51:28.723Z,11.27
2023-11-14T03:52:28.734Z,11.28
2023-11-14T03:53:28.704Z,11.28
2023-11-14T03:54:28.720Z,11.28
2023-11-14T03:55:28.725Z,11.28
2023-11-14T03:56:28.671Z,11.25
2023-11-14T03:57:28.684Z,11.24
2023-11-14T03:58:28.668Z,11.27
2023-11-14T03:59:28.648Z,11.29
2023-11-14T04:00:28.646Z,11.32
2023-11-14T04:01:28.690Z,11.33
2023-11-14T04:02:28.785Z,11.35
2023-11-14T04:03:28.615Z,11.36
2023-11-14T04:04:28.596Z,11.39
2023-11-14T04:05:28.608Z,11.37
2023-11-14T04:06:28.574Z,11.36
2023-11-14T04:07:28.602Z,11.36
2023-11-14T04:08:28.529Z,11.39
2023-11-14T04:09:28.545Z,11.39
2023-11-14T04:10:28.531Z,11.39
2023-11-14T04:11:28.515Z,11.37
2023-11-14T04:12:28.481Z,11.40
2023-11-14T04:13:28.505Z,11.39
2023-11-14T04:14:28.493Z,11.40
2023-11-14T04:15:28.476Z,11.40
2023-11-14T04:16:28.451Z,11.42
2023-11-14T04:17:28.628Z,11.40
2023-11-14T04:18:28.466Z,11.44
2023-11-14T04:19:28.504Z,11.43
2023-11-14T04:20:28.435Z,11.44
2023-11-14T04:21:28.390Z,11.46
2023-11-14T04:22:28.386Z,11.46
2023-11-14T04:23:28.374Z,11.42
2023-11-14T04:24:28.395Z,11.36
2023-11-14T04:25:28.354Z,11.33
2023-11-14T04:26:28.338Z,11.29
2023-11-14T04:27:28.307Z,11.29
2023-11-14T04:28:28.322Z,11.29
2023-11-14T04:29:28.341Z,11.29
2023-11-14T04:30:28.324Z,11.33
2023-11-14T04:31:28.338Z,11.33
2023-11-14T04:32:28.381Z,11.33
2023-11-14T04:33:28.324Z,11.37
2023-11-14T04:34:28.267Z,11.40
2023-11-14T04:35:28.267Z,11.43
2023-11-14T04:36:28.259Z,11.42
2023-11-14T04:37:28.240Z,11.44
2023-11-14T04:38:28.204Z,11.44
2023-11-14T04:39:28.178Z,11.43
2023-11-14T04:40:28.172Z,11.42
2023-11-14T04:41:28.225Z,11.42
2023-11-14T04:42:28.175Z,11.40
2023-11-14T04:43:28.133Z,11.39
2023-11-14T04:44:28.149Z,11.39
2023-11-14T04:45:28.128Z,11.39
2023-11-14T04:46:28.194Z,11.40
2023-11-14T04:47:28.250Z,11.40
2023-11-14T04:48:28.111Z,11.43
2023-11-14T04:49:28.091Z,11.44
2023-11-14T04:50:28.099Z,11.42
2023-11-14T04:51:28.062Z,11.44
2023-11-14T04:52:28.046Z,11.44
2023-11-14T04:53:28.049Z,11.47
2023-11-14T04:54:28.014Z,11.46
2023-11-14T04:55:28.040Z,11.46
2023-11-14T04:56:27.984Z,11.43
2023-11-14T04:57:27.991Z,11.42
2023-11-14T04:58:27.973Z,11.40
2023-11-14T04:59:28.113Z,11.39
2023-11-14T05:00:27.973Z,11.39
2023-11-14T05:01:27.945Z,11.39
2023-11-14T05:02:27.964Z,11.37
2023-11-14T05:03:28.013Z,11.33
2023-11-14T05:04:27.933Z,11.29
2023-11-14T05:05:27.880Z,11.28
2023-11-14T05:06:27.884Z,11.25
2023-11-14T05:07:27.881Z,11.24
2023-11-14T05:08:27.860Z,11.24
2023-11-14T05:09:27.878Z,11.22
2023-11-14T05:10:27.820Z,11.22
2023-11-14T05:11:27.832Z,11.25
2023-11-14T05:12:27.825Z,11.27
2023-11-14T05:13:27.803Z,11.28
2023-11-14T05:14:27.803Z,11.32
2023-11-14T05:15:27.821Z,11.32
2023-11-14T05:16:27.786Z,11.32
2023-11-14T05:17:27.944Z,11.25
2023-11-14T05:18:27.768Z,11.24
2023-11-14T05:19:27.717Z,11.22
2023-11-14T05:20:27.740Z,11.22
2023-11-14T05:21:27.751Z,11.21
2023-11-14T05:22:27.728Z,11.24
2023-11-14T05:23:27.747Z,11.24
2023-11-14T05:24:27.718Z,11.22
2023-11-14T05:25:27.692Z,11.24
2023-11-14T05:26:27.665Z,11.24
2023-11-14T05:27:27.673Z,11.24
2023-11-14T05:28:27.657Z,11.24
2023-11-14T05:29:27.613Z,11.27
2023-11-14T05:30:27.607Z,11.28
2023-11-14T05:31:27.692Z,11.28
2023-11-14T05:32:27.650Z,11.32
2023-11-14T05:33:27.596Z,11.33
2023-11-14T05:34:27.551Z,11.35
2023-11-14T05:35:27.554Z,11.33
2023-11-14T05:36:27.595Z,11.29
2023-11-14T05:37:27.511Z,11.27
2023-11-14T05:38:27.552Z,11.28
2023-11-14T05:39:27.520Z,11.35
2023-11-14T05:40:27.478Z,11.42
2023-11-14T05:41:27.535Z,11.43
2023-11-14T05:42:27.479Z,11.42
2023-11-14T05:43:27.468Z,11.43
2023-11-14T05:44:27.465Z,11.43
2023-11-14T05:45:27.448Z,11.42
2023-11-14T05:46:27.466Z,11.42
2023-11-14T05:47:27.441Z,11.44
2023-11-14T05:48:27.436Z,11.47
2023-11-14T05:49:27.395Z,11.49
2023-11-14T05:50:27.380Z,11.52
2023-11-14T05:51:27.430Z,11.51
2023-11-14T05:52:27.372Z,11.47
2023-11-14T05:53:27.354Z,11.44
2023-11-14T05:54:27.360Z,11.43
2023-11-14T05:55:27.323Z,11.44
2023-11-14T05:56:27.306Z,11.43
2023-11-14T05:57:27.331Z,11.40
2023-11-14T05:58:27.302Z,11.37
2023-11-14T05:59:27.300Z,11.36
2023-11-14T06:00:27.279Z,11.36
2023-11-14T06:01:27.248Z,11.37
2023-11-14T06:02:27.258Z,11.40
2023-11-14T06:03:27.276Z,11.43
2023-11-14T06:04:31.356Z,11.43
2023-11-14T06:05:28.278Z,11.42
2023-11-14T06:06:27.188Z,11.39
2023-11-14T06:07:27.185Z,11.37
2023-11-14T06:08:27.165Z,11.36
2023-11-14T06:09:27.204Z,11.33
2023-11-14T06:10:27.165Z,11.29
2023-11-14T06:11:27.143Z,11.32
2023-11-14T06:12:27.132Z,11.32
2023-11-14T06:13:27.110Z,11.29
2023-11-14T06:14:27.119Z,11.32
2023-11-14T06:15:27.121Z,11.32
2023-11-14T06:16:27.520Z,11.32
2023-11-14T06:17:27.096Z,11.32
2023-11-14T06:18:27.054Z,11.32
2023-11-14T06:19:27.049Z,11.33
2023-11-14T06:20:27.097Z,11.36
2023-11-14T06:21:27.017Z,11.36
2023-11-14T06:22:27.005Z,11.35
2023-11-14T06:23:27.044Z,11.36
2023-11-14T06:24:26.973Z,11.35
2023-11-14T06:25:27.035Z,11.32
2023-11-14T06:26:27.009Z,11.29
2023-11-14T06:27:27.003Z,11.27
2023-11-14T06:28:26.945Z,11.25
2023-11-14T06:29:26.941Z,11.24
2023-11-14T06:30:26.943Z,11.24
2023-11-14T06:31:26.905Z,11.24
2023-11-14T06:32:27.040Z,11.27
2023-11-14T06:33:26.984Z,11.28
2023-11-14T06:34:26.861Z,11.28
2023-11-14T06:35:26.899Z,11.28
2023-11-14T06:36:26.837Z,11.29
2023-11-14T06:37:26.853Z,11.36
2023-11-14T06:38:26.823Z,11.43
2023-11-14T06:39:26.826Z,11.47
2023-11-14T06:40:26.813Z,11.52
2023-11-14T06:41:26.844Z,11.52
2023-11-14T06:42:26.809Z,11.54
2023-11-14T06:43:26.778Z,11.54
2023-11-14T06:44:26.769Z,11.52
2023-11-14T06:45:26.760Z,11.52
2023-11-14T06:46:26.786Z,11.54
2023-11-14T06:47:26.801Z,11.51
2023-11-14T06:48:26.729Z,11.51
2023-11-14T06:49:26.967Z,11.51
2023-11-14T06:50:34.056Z,11.54
2023-11-14T06:51:27.688Z,11.58
2023-11-14T06:52:26.693Z,11.58
2023-11-14T06:53:26.707Z,11.58
2023-11-14T06:54:26.636Z,11.61
2023-11-14T06:55:26.637Z,11.60
2023-11-14T06:56:26.629Z,11.60
2023-11-14T06:57:26.616Z,11.62
2023-11-14T06:58:26.611Z,11.64
2023-11-14T06:59:26.628Z,11.65
2023-11-14T07:00:26.593Z,11.65
2023-11-14T07:01:26.574Z,11.67
2023-11-14T07:02:26.702Z,11.69
2023-11-14T07:03:26.570Z,11.70
2023-11-14T07:04:26.616Z,11.72
2023-11-14T07:05:26.660Z,11.75
2023-11-14T07:06:26.506Z,11.76
2023-11-14T07:07:26.520Z,11.80
2023-11-14T07:08:26.486Z,11.82
2023-11-14T07:09:26.483Z,11.85
2023-11-14T07:10:26.655Z,11.90
2023-11-14T07:11:26.537Z,11.94
2023-11-14T07:12:26.447Z,11.96
2023-11-14T07:13:26.429Z,11.99
2023-11-14T07:14:26.418Z,12.01
2023-11-14T07:15:26.416Z,12.04
2023-11-14T07:16:26.493Z,12.07
2023-11-14T07:17:26.553Z,12.12
2023-11-14T07:18:26.408Z,12.14
2023-11-14T07:19:26.367Z,12.14
2023-11-14T07:20:26.398Z,12.13
2023-11-14T07:21:26.363Z,12.16
2023-11-14T07:22:26.313Z,12.17
2023-11-14T07:23:26.377Z,12.19
2023-11-14T07:24:26.378Z,12.19
2023-11-14T07:25:26.297Z,12.20
2023-11-14T07:26:26.326Z,12.19
2023-11-14T07:27:26.254Z,12.20
2023-11-14T07:28:26.292Z,12.23
2023-11-14T07:29:26.270Z,12.23
2023-11-14T07:30:26.284Z,12.24
2023-11-14T07:31:26.244Z,12.27
2023-11-14T07:32:26.237Z,12.28
2023-11-14T07:33:26.236Z,12.31
2023-11-14T07:34:26.209Z,12.29
2023-11-14T07:35:26.165Z,12.29
2023-11-14T07:36:26.194Z,12.28
2023-11-14T07:37:26.185Z,12.24
2023-11-14T07:38:26.179Z,12.24
2023-11-14T07:39:26.161Z,12.24
2023-11-14T07:40:29.178Z,12.27
2023-11-14T07:41:26.113Z,12.28
2023-11-14T07:42:26.153Z,12.29
2023-11-14T07:43:26.120Z,12.34
2023-11-14T07:44:26.092Z,12.34
2023-11-14T07:45:26.080Z,12.34
2023-11-14T07:46:26.109Z,12.38
2023-11-14T07:47:26.107Z,12.45
2023-11-14T07:48:26.102Z,12.53
2023-11-14T07:49:26.037Z,12.62
2023-11-14T07:50:26.097Z,12.65
2023-11-14T07:51:26.013Z,12.70
2023-11-14T07:52:26.001Z,12.71
2023-11-14T07:53:26.004Z,12.75
2023-11-14T07:54:25.976Z,12.79
2023-11-14T07:55:25.975Z,12.77
2023-11-14T07:56:25.998Z,12.74
2023-11-14T07:57:25.948Z,12.70
2023-11-14T07:58:25.927Z,12.70
2023-11-14T07:59:25.900Z,12.70
2023-11-14T08:00:25.881Z,12.71
2023-11-14T08:01:25.898Z,12.74
2023-11-14T08:02:26.060Z,12.74
2023-11-14T08:03:25.983Z,12.78
2023-11-14T08:04:25.991Z,12.85
2023-11-14T08:05:25.940Z,12.82
2023-11-14T08:06:25.865Z,12.77
2023-11-14T08:07:25.862Z,12.75
2023-11-14T08:08:26.179Z,12.77
2023-11-14T08:09:25.814Z,12.75
2023-11-14T08:10:25.791Z,12.77
2023-11-14T08:11:25.794Z,12.77
2023-11-14T08:12:25.759Z,12.74
2023-11-14T08:13:25.789Z,12.70
2023-11-14T08:14:25.775Z,12.64
2023-11-14T08:15:28.741Z,12.64
2023-11-14T08:16:25.751Z,12.67
2023-11-14T08:17:26.852Z,12.70
2023-11-14T08:18:25.724Z,12.77
2023-11-14T08:19:25.736Z,12.89
2023-11-14T08:20:25.656Z,12.96
2023-11-14T08:21:25.640Z,13.03
2023-11-14T08:22:25.696Z,13.05
2023-11-14T08:23:25.693Z,13.08
2023-11-14T08:24:25.981Z,13.08
2023-11-14T08:25:25.660Z,13.07
2023-11-14T08:26:25.612Z,13.04
2023-11-14T08:27:25.577Z,13.03
2023-11-14T08:28:25.623Z,13.03
2023-11-14T08:29:25.574Z,13.07
2023-11-14T08:30:25.554Z,13.14
2023-11-14T08:31:25.609Z,13.23
2023-11-14T08:32:25.570Z,13.29
2023-11-14T08:33:26.561Z,13.28
2023-11-14T08:34:25.576Z,13.26
2023-11-14T08:35:25.570Z,13.25
2023-11-14T08:36:25.758Z,13.19
2023-11-14T08:37:25.462Z,13.15
2023-11-14T08:38:25.471Z,13.12
2023-11-14T08:39:28.204Z,13.20
2023-11-14T08:40:25.443Z,13.26
2023-11-14T08:41:25.717Z,13.39
2023-11-14T08:42:25.426Z,13.42
2023-11-14T08:43:25.431Z,13.42
2023-11-14T08:44:25.614Z,13.45
2023-11-14T08:45:25.404Z,13.46
2023-11-14T08:46:25.392Z,13.52
2023-11-14T08:47:25.466Z,13.49
2023-11-14T08:48:25.343Z,13.46
2023-11-14T08:49:25.381Z,13.48
2023-11-14T08:50:25.398Z,13.52
2023-11-14T08:51:25.338Z,13.62
2023-11-14T08:52:25.349Z,13.66
2023-11-14T08:53:25.338Z,13.67
2023-11-14T08:54:25.308Z,13.67
2023-11-14T08:55:25.277Z,13.71
2023-11-14T08:56:25.717Z,13.78
2023-11-14T08:57:26.289Z,13.70
2023-11-14T08:58:28.255Z,13.71
2023-11-14T08:59:25.319Z,13.71
2023-11-14T09:00:25.261Z,13.75
2023-11-14T09:01:25.225Z,13.81
2023-11-14T09:02:25.287Z,13.82
2023-11-14T09:03:25.327Z,13.88
2023-11-14T09:04:25.156Z,13.92
2023-11-14T09:05:25.281Z,13.92
2023-11-14T09:06:25.189Z,13.92
2023-11-14T09:07:25.154Z,13.95
2023-11-14T09:08:25.260Z,13.96
2023-11-14T09:09:25.126Z,13.92
2023-11-14T09:10:25.158Z,13.91
2023-11-14T09:11:25.129Z,13.91
2023-11-14T09:12:25.132Z,13.92
2023-11-14T09:13:25.071Z,13.96
2023-11-14T09:14:25.144Z,13.96
2023-11-14T09:15:25.058Z,13.99
2023-11-14T09:16:25.080Z,13.99
2023-11-14T09:17:25.233Z,14.00
2023-11-14T09:18:25.270Z,14.00
2023-11-14T09:19:25.272Z,13.99
2023-11-14T09:20:24.980Z,14.00
2023-11-14T09:21:25.052Z,13.95
2023-11-14T09:22:25.031Z,13.95
2023-11-14T09:23:25.131Z,13.91
2023-11-14T09:24:24.984Z,13.91
2023-11-14T09:25:25.056Z,13.95
2023-11-14T09:26:24.983Z,13.96
2023-11-14T09:27:25.603Z,13.96
2023-11-14T09:28:24.913Z,14.00
2023-11-14T09:29:25.172Z,14.02
2023-11-14T09:30:24.889Z,14.04
2023-11-14T09:31:24.869Z,14.09
2023-11-14T09:32:25.050Z,14.04
2023-11-14T09:33:24.890Z,13.99
2023-11-14T09:34:24.970Z,13.96
2023-11-14T09:35:24.858Z,13.92
2023-11-14T09:36:24.881Z,13.95
2023-11-14T09:37:24.801Z,14.00
2023-11-14T09:38:24.834Z,14.00
2023-11-14T09:39:27.382Z,13.99
2023-11-14T09:40:24.791Z,13.99
2023-11-14T09:41:26.714Z,14.00
2023-11-14T09:42:24.797Z,14.00
2023-11-14T09:43:24.818Z,14.09
2023-11-14T09:44:24.879Z,14.21
2023-11-14T09:45:24.765Z,14.27
2023-11-14T09:46:24.760Z,14.35
2023-11-14T09:47:24.827Z,14.39
2023-11-14T09:48:24.728Z,14.43
2023-11-14T09:49:25.594Z,14.37
2023-11-14T09:50:24.819Z,14.36
2023-11-14T09:51:24.720Z,14.39
2023-11-14T09:52:25.282Z,14.42
2023-11-14T09:53:24.834Z,14.45
2023-11-14T09:54:24.621Z,14.42
2023-11-14T09:55:24.689Z,14.43
2023-11-14T09:56:24.704Z,14.51
2023-11-14T09:57:24.711Z,14.52
2023-11-14T09:58:24.582Z,14.52
2023-11-14T09:59:24.633Z,14.51
2023-11-14T10:00:24.563Z,14.55
2023-11-14T10:01:24.553Z,14.50
2023-11-14T10:02:25.677Z,14.51
2023-11-14T10:03:24.645Z,14.51
2023-11-14T10:04:24.553Z,14.51
2023-11-14T10:05:24.549Z,14.54
2023-11-14T10:06:24.469Z,14.52
2023-11-14T10:07:24.491Z,14.51
2023-11-14T10:08:24.530Z,14.47
2023-11-14T10:09:24.499Z,14.43
2023-11-14T10:10:24.458Z,14.45
2023-11-14T10:11:24.452Z,14.50
2023-11-14T10:12:25.813Z,14.47
2023-11-14T10:13:24.386Z,14.40
2023-11-14T10:14:24.424Z,14.36
2023-11-14T10:15:24.457Z,14.35
2023-11-14T10:16:24.421Z,14.35
2023-11-14T10:17:24.417Z,14.32
2023-11-14T10:18:24.424Z,14.32
2023-11-14T10:19:24.362Z,14.29
2023-11-14T10:20:28.687Z,14.27
2023-11-14T10:21:25.317Z,14.22
2023-11-14T10:22:24.290Z,14.25
2023-11-14T10:23:28.064Z,14.27
2023-11-14T10:24:25.423Z,14.28
2023-11-14T10:25:24.277Z,14.29
2023-11-14T10:26:24.262Z,14.36
2023-11-14T10:27:24.331Z,14.39
2023-11-14T10:28:24.255Z,14.45
2023-11-14T10:29:24.290Z,14.47
2023-11-14T10:30:24.342Z,14.47
2023-11-14T10:31:24.287Z,14.47
2023-11-14T10:32:24.311Z,14.46
2023-11-14T10:33:24.377Z,14.42
2023-11-14T10:34:24.161Z,14.39
2023-11-14T10:35:24.187Z,14.37
2023-11-14T10:36:24.166Z,14.39
2023-11-14T10:37:24.129Z,14.40
2023-11-14T10:38:24.483Z,14.40
2023-11-14T10:39:24.103Z,14.39
2023-11-14T10:40:24.120Z,14.36
2023-11-14T10:41:27.189Z,14.37
2023-11-14T10:42:24.087Z,14.37
2023-11-14T10:43:24.200Z,14.35
2023-11-14T10:44:24.078Z,14.33
2023-11-14T10:45:24.040Z,14.33
2023-11-14T10:46:24.059Z,14.29
2023-11-14T10:47:24.069Z,14.28
2023-11-14T10:48:24.028Z,14.24
2023-11-14T10:49:23.997Z,14.24
2023-11-14T10:50:24.038Z,14.24
2023-11-14T10:51:23.950Z,14.24
2023-11-14T10:52:24.196Z,14.27
2023-11-14T10:53:24.026Z,14.28
2023-11-14T10:54:23.924Z,14.28
2023-11-14T10:55:23.909Z,14.32
2023-11-14T10:56:23.962Z,14.36
2023-11-14T10:57:26.298Z,14.40
2023-11-14T10:58:23.931Z,14.50
2023-11-14T10:59:23.910Z,14.55
2023-11-14T11:00:23.904Z,14.52
2023-11-14T11:01:23.864Z,14.45
2023-11-14T11:02:25.746Z,14.42
2023-11-14T11:03:23.911Z,14.37
2023-11-14T11:04:23.831Z,14.36
2023-11-14T11:05:30.738Z,14.33
2023-11-14T11:06:24.843Z,14.33
2023-11-14T11:07:23.805Z,14.32
2023-11-14T11:08:23.966Z,14.28
2023-11-14T11:09:23.738Z,14.24
2023-11-14T11:10:23.762Z,14.22
2023-11-14T11:11:23.786Z,14.21
2023-11-14T11:12:23.720Z,14.27
2023-11-14T11:13:23.723Z,14.22
2023-11-14T11:14:24.207Z,14.20
2023-11-14T11:15:23.737Z,14.21
2023-11-14T11:16:23.694Z,14.22
2023-11-14T11:17:23.757Z,14.21
2023-11-14T11:18:23.671Z,14.15
2023-11-14T11:19:23.660Z,14.09
2023-11-14T11:20:23.676Z,14.04
2023-11-14T11:21:23.658Z,14.04
2023-11-14T11:22:23.598Z,14.07
2023-11-14T11:23:23.635Z,14.10
2023-11-14T11:24:30.082Z,14.09
2023-11-14T11:25:24.708Z,14.10
2023-11-14T11:26:23.603Z,14.12
2023-11-14T11:27:23.541Z,14.18
2023-11-14T11:28:23.528Z,14.22
2023-11-14T11:29:23.575Z,14.27
2023-11-14T11:30:23.541Z,14.25
2023-11-14T11:31:23.620Z,14.20
2023-11-14T11:32:23.557Z,14.21
2023-11-14T11:33:23.526Z,14.21
2023-11-14T11:34:23.493Z,14.25
2023-11-14T11:35:23.740Z,14.29
2023-11-14T11:36:23.500Z,14.33
2023-11-14T11:37:23.499Z,14.39
2023-11-14T11:38:23.526Z,14.40
2023-11-14T11:39:23.440Z,14.40
2023-11-14T11:40:23.427Z,14.46
2023-11-14T11:41:23.461Z,14.45
2023-11-14T11:42:23.392Z,14.46
2023-11-14T11:43:23.430Z,14.42
2023-11-14T11:44:23.412Z,14.37
2023-11-14T11:45:23.370Z,14.32
2023-11-14T11:46:23.379Z,14.27
2023-11-14T11:47:23.412Z,14.25
2023-11-14T11:48:23.369Z,14.24
2023-11-14T11:49:23.296Z,14.18
2023-11-14T11:50:23.328Z,14.12
2023-11-14T11:51:24.301Z,14.10
2023-11-14T11:52:23.297Z,14.07
2023-11-14T11:53:23.307Z,14.10
2023-11-14T11:54:23.293Z,14.10
2023-11-14T11:55:23.259Z,14.10
2023-11-14T11:56:23.275Z,14.10
2023-11-14T11:57:23.222Z,14.10
2023-11-14T11:58:23.949Z,14.07
2023-11-14T11:59:23.322Z,14.06
2023-11-14T12:00:23.542Z,14.04
2023-11-14T12:01:23.183Z,14.02
2023-11-14T12:02:23.279Z,13.92
2023-11-14T12:03:23.256Z,13.89
2023-11-14T12:04:24.193Z,13.89
2023-11-14T12:05:23.265Z,13.96
2023-11-14T12:06:23.210Z,14.04
2023-11-14T12:07:23.119Z,14.10
2023-11-14T12:08:23.146Z,14.18
2023-11-14T12:09:23.102Z,14.25
2023-11-14T12:10:24.721Z,14.32
2023-11-14T12:11:23.142Z,14.33
2023-11-14T12:12:23.071Z,14.35
2023-11-14T12:13:23.058Z,14.28
2023-11-14T12:14:23.055Z,14.24
2023-11-14T12:15:23.029Z,14.27
2023-11-14T12:16:23.122Z,14.33
2023-11-14T12:17:23.057Z,14.37
2023-11-14T12:18:22.974Z,14.39
2023-11-14T12:19:22.982Z,14.39
2023-11-14T12:20:23.024Z,14.40
2023-11-14T12:21:22.975Z,14.37
2023-11-14T12:22:22.941Z,14.37
2023-11-14T12:23:24.045Z,14.37
2023-11-14T12:24:22.920Z,14.37
2023-11-14T12:25:22.996Z,14.40
2023-11-14T12:26:22.943Z,14.39
2023-11-14T12:27:22.917Z,14.35
2023-11-14T12:28:22.897Z,14.33
2023-11-14T12:29:22.910Z,14.32
2023-11-14T12:30:22.882Z,14.32
2023-11-14T12:31:22.902Z,14.32
2023-11-14T12:32:23.140Z,14.32
2023-11-14T12:33:22.863Z,14.33
2023-11-14T12:34:22.839Z,14.35
2023-11-14T12:35:23.808Z,14.36
2023-11-14T12:36:22.805Z,14.33
2023-11-14T12:37:22.764Z,14.35
2023-11-14T12:38:22.873Z,14.36
2023-11-14T12:39:22.732Z,14.37
2023-11-14T12:40:22.754Z,14.36
2023-11-14T12:41:22.793Z,14.37
2023-11-14T12:42:22.741Z,14.36
2023-11-14T12:43:22.735Z,14.37
2023-11-14T12:44:22.769Z,14.37
2023-11-14T12:45:22.705Z,14.37
2023-11-14T12:46:22.715Z,14.37
2023-11-14T12:47:22.744Z,14.39
2023-11-14T12:48:22.664Z,14.42
2023-11-14T12:49:22.674Z,14.43
2023-11-14T12:50:22.906Z,14.43
2023-11-14T12:51:22.631Z,14.45
2023-11-14T12:52:22.626Z,14.50